createdAt,value
2022-08-29T00:00:31.872Z,94988.75
2022-08-29T00:03:00.352Z,94979.44
2022-08-29T00:05:34.054Z,94979.13
2022-08-29T00:08:04.932Z,94988.56
2022-08-29T00:10:37.916Z,94965.47
2022-08-29T00:13:06.607Z,94979.59
2022-08-29T00:15:44.631Z,94976.00
2022-08-29T00:18:16.221Z,94970.25
2022-08-29T00:20:44.366Z,94975.78
2022-08-29T00:23:11.910Z,94986.31
2022-08-29T00:25:38.739Z,94973.81
2022-08-29T00:28:06.054Z,94986.31
2022-08-29T00:30:33.757Z,94984.31
2022-08-29T00:33:00.429Z,94968.50
2022-08-29T00:35:31.316Z,94976.22
2022-08-29T00:37:58.801Z,94977.28
2022-08-29T00:40:38.137Z,94972.56
2022-08-29T00:43:06.422Z,94983.72
2022-08-29T00:45:34.458Z,94972.41
2022-08-29T00:48:05.535Z,94971.53
2022-08-29T00:50:36.944Z,94981.16
2022-08-29T00:53:06.306Z,94979.84
2022-08-29T00:55:36.157Z,94981.91
2022-08-29T00:58:08.513Z,94976.91
2022-08-29T01:00:36.046Z,94980.19
2022-08-29T01:03:04.688Z,94972.72
2022-08-29T01:05:32.957Z,94977.13
2022-08-29T01:07:59.862Z,94972.31
2022-08-29T01:10:45.307Z,94958.28
2022-08-29T01:13:12.543Z,94972.13
2022-08-29T01:15:44.073Z,94975.72
2022-08-29T01:18:12.052Z,94973.63
2022-08-29T01:21:16.777Z,94968.34
2022-08-29T01:24:13.930Z,94956.00
2022-08-29T01:26:41.762Z,94968.63
2022-08-29T01:29:09.229Z,94967.91
2022-08-29T01:31:56.867Z,94969.41
2022-08-29T01:34:26.134Z,94957.19
2022-08-29T01:36:59.242Z,94966.06
2022-08-29T01:39:29.840Z,94971.34
2022-08-29T01:41:57.829Z,94971.84
2022-08-29T01:44:26.334Z,94975.53
2022-08-29T01:47:01.874Z,94978.00
2022-08-29T01:49:31.286Z,94970.75
2022-08-29T01:51:57.936Z,94983.94
2022-08-29T01:54:24.685Z,94971.94
2022-08-29T01:56:52.751Z,94982.97
2022-08-29T01:59:23.683Z,94980.94
2022-08-29T02:01:54.723Z,94985.72
2022-08-29T02:04:21.665Z,94991.28
2022-08-29T02:06:48.522Z,94990.03
2022-08-29T02:09:15.170Z,94992.56
2022-08-29T02:11:41.982Z,94986.31
2022-08-29T02:14:09.732Z,94991.06
2022-08-29T02:16:46.323Z,94990.84
2022-08-29T02:19:13.118Z,94989.09
2022-08-29T02:21:40.668Z,94987.03
2022-08-29T02:24:24.371Z,94992.22
2022-08-29T02:26:52.600Z,94984.97
2022-08-29T02:29:19.223Z,94986.00
2022-08-29T02:31:46.018Z,94983.28
2022-08-29T02:34:13.028Z,94976.53
2022-08-29T02:36:41.427Z,94985.63
2022-08-29T02:39:08.701Z,94985.63
2022-08-29T02:41:36.115Z,94988.41
2022-08-29T02:44:03.927Z,95001.91
2022-08-29T02:46:31.087Z,94988.41
2022-08-29T02:49:01.481Z,94993.81
2022-08-29T02:51:30.767Z,94993.81
2022-08-29T02:53:58.421Z,95004.22
2022-08-29T02:56:25.773Z,95002.03
2022-08-29T02:58:52.719Z,95007.59
2022-08-29T03:01:22.216Z,94998.84
2022-08-29T03:03:50.464Z,95009.66
2022-08-29T03:06:17.754Z,95015.25
2022-08-29T03:08:44.443Z,95017.03
2022-08-29T03:11:11.142Z,95010.03
2022-08-29T03:13:37.863Z,95006.53
2022-08-29T03:16:04.935Z,95010.31
2022-08-29T03:18:31.718Z,95020.63
2022-08-29T03:20:58.417Z,95006.38
2022-08-29T03:23:25.323Z,95011.72
2022-08-29T03:25:51.929Z,95011.31
2022-08-29T03:28:18.655Z,95026.81
2022-08-29T03:30:45.413Z,95028.59
2022-08-29T03:33:12.296Z,95026.81
2022-08-29T03:35:39.715Z,95023.25
2022-08-29T03:38:07.079Z,95029.00
2022-08-29T03:40:33.992Z,95024.00
2022-08-29T03:43:00.933Z,95030.78
2022-08-29T03:45:27.828Z,95029.50
2022-08-29T03:47:54.546Z,95036.75
2022-08-29T03:50:22.856Z,95035.72
2022-08-29T03:52:49.700Z,95037.72
2022-08-29T03:55:17.224Z,95045.78
2022-08-29T03:57:45.196Z,95039.97
2022-08-29T04:00:16.464Z,95031.47
2022-08-29T04:02:46.035Z,95045.75
2022-08-29T04:05:14.603Z,95028.19
2022-08-29T04:07:47.379Z,95036.91
2022-08-29T04:10:22.620Z,95031.16
2022-08-29T04:12:53.917Z,95036.88
2022-08-29T04:15:23.043Z,95044.38
2022-08-29T04:17:54.449Z,95040.53
2022-08-29T04:20:25.249Z,95052.53
2022-08-29T04:22:54.366Z,95043.22
2022-08-29T04:25:22.226Z,95048.47
2022-08-29T04:27:49.688Z,95050.69
2022-08-29T04:30:19.119Z,95054.84
2022-08-29T04:32:46.121Z,95056.53
2022-08-29T04:35:14.499Z,95062.47
2022-08-29T04:37:41.807Z,95063.19
2022-08-29T04:40:11.019Z,95061.38
2022-08-29T04:42:38.729Z,95062.44
2022-08-29T04:45:07.745Z,95071.00
2022-08-29T04:47:37.789Z,95060.69
2022-08-29T04:50:06.746Z,95070.91
2022-08-29T04:52:33.434Z,95071.78
2022-08-29T04:55:00.368Z,95070.91
2022-08-29T04:57:27.039Z,95077.41
2022-08-29T04:59:59.087Z,95076.53
2022-08-29T05:02:27.891Z,95071.03
2022-08-29T05:04:56.668Z,95086.44
2022-08-29T05:07:25.927Z,95088.84
2022-08-29T05:10:02.035Z,95081.94
2022-08-29T05:12:30.446Z,95094.25
2022-08-29T05:14:57.438Z,95093.28
2022-08-29T05:17:24.760Z,95097.09
2022-08-29T05:19:51.582Z,95096.34
2022-08-29T05:22:19.949Z,95105.63
2022-08-29T05:24:49.057Z,95106.06
2022-08-29T05:27:19.061Z,95107.41
2022-08-29T05:29:47.602Z,95099.59
2022-08-29T05:32:15.476Z,95114.03
2022-08-29T05:34:44.085Z,95093.78
2022-08-29T05:37:14.175Z,95103.84
2022-08-29T05:39:41.536Z,95104.72
2022-08-29T05:42:09.936Z,95100.38
2022-08-29T05:44:37.134Z,95107.38
2022-08-29T05:47:05.982Z,95117.88
2022-08-29T05:49:32.710Z,95127.56
2022-08-29T05:52:00.739Z,95123.03
2022-08-29T05:54:29.944Z,95125.34
2022-08-29T05:56:57.227Z,95124.38
2022-08-29T05:59:23.892Z,95128.84
2022-08-29T06:01:50.666Z,95131.41
2022-08-29T06:04:18.806Z,95126.69
2022-08-29T06:06:45.484Z,95133.41
2022-08-29T06:09:13.845Z,95122.31
2022-08-29T06:11:40.775Z,95130.56
2022-08-29T06:14:07.489Z,95120.47
2022-08-29T06:16:34.242Z,95107.53
2022-08-29T06:19:01.080Z,95124.97
2022-08-29T06:21:27.847Z,95122.94
2022-08-29T06:23:55.243Z,95114.09
2022-08-29T06:26:22.191Z,95125.78
2022-08-29T06:28:49.271Z,95113.69
2022-08-29T06:31:20.907Z,95099.75
2022-08-29T06:33:47.837Z,95121.41
2022-08-29T06:36:14.528Z,95116.13
2022-08-29T06:38:41.204Z,95125.22
2022-08-29T06:41:12.525Z,95117.88
2022-08-29T06:43:40.539Z,95113.69
2022-08-29T06:46:08.310Z,95124.22
2022-08-29T06:48:35.337Z,95118.81
2022-08-29T06:51:02.806Z,95126.38
2022-08-29T06:53:31.996Z,95125.66
2022-08-29T06:56:11.094Z,95128.44
2022-08-29T06:58:38.848Z,95132.34
2022-08-29T07:01:14.219Z,95137.03
2022-08-29T07:03:41.513Z,95141.28
2022-08-29T07:06:09.449Z,95138.50
2022-08-29T07:08:39.781Z,95138.91
2022-08-29T07:11:09.287Z,95133.13
2022-08-29T07:13:35.941Z,95127.91
2022-08-29T07:16:03.245Z,95140.19
2022-08-29T07:18:29.881Z,95132.00
2022-08-29T07:20:56.550Z,95131.25
2022-08-29T07:23:23.202Z,95135.16
2022-08-29T07:25:49.832Z,95138.16
2022-08-29T07:28:16.779Z,95137.19
2022-08-29T07:30:43.581Z,95147.06
2022-08-29T07:33:10.307Z,95132.56
2022-08-29T07:35:37.186Z,95147.97
2022-08-29T07:38:03.991Z,95153.41
2022-08-29T07:40:30.813Z,95145.34
2022-08-29T07:42:57.473Z,95142.16
2022-08-29T07:45:24.409Z,95149.06
2022-08-29T07:47:51.289Z,95139.38
2022-08-29T07:50:18.036Z,95146.22
2022-08-29T07:52:44.848Z,95144.06
2022-08-29T07:55:12.081Z,95144.81
2022-08-29T07:57:39.991Z,95143.94
2022-08-29T08:00:12.254Z,95138.03
2022-08-29T08:02:39.201Z,95137.59
2022-08-29T08:05:07.055Z,95130.31
2022-08-29T08:07:35.224Z,95132.53
2022-08-29T08:10:02.872Z,95140.47
2022-08-29T08:12:29.593Z,95143.78
2022-08-29T08:14:57.173Z,95141.53
2022-08-29T08:17:24.482Z,95135.94
2022-08-29T08:19:51.096Z,95135.22
2022-08-29T08:22:17.799Z,95126.34
2022-08-29T08:24:45.115Z,95127.81
2022-08-29T08:27:11.875Z,95127.13
2022-08-29T08:29:38.550Z,95128.94
2022-08-29T08:32:05.337Z,95128.31
2022-08-29T08:34:35.761Z,95140.75
2022-08-29T08:37:07.998Z,95124.91
2022-08-29T08:39:35.016Z,95127.91
2022-08-29T08:42:16.780Z,95134.44
2022-08-29T08:45:01.864Z,95139.94
2022-08-29T08:47:33.561Z,95128.84
2022-08-29T08:50:20.758Z,95126.78
2022-08-29T08:52:58.914Z,95131.94
2022-08-29T08:55:45.954Z,95121.75
2022-08-29T08:58:38.999Z,95130.63
2022-08-29T09:01:30.216Z,95124.38
2022-08-29T09:04:08.796Z,95117.13
2022-08-29T09:06:42.876Z,95120.47
2022-08-29T09:09:29.836Z,95126.63
2022-08-29T09:12:13.545Z,95118.59
2022-08-29T09:14:44.141Z,95120.09
2022-08-29T09:17:22.225Z,95113.59
2022-08-29T09:19:50.966Z,95113.56
2022-08-29T09:22:32.737Z,95115.81
2022-08-29T09:25:06.358Z,95106.47
2022-08-29T09:27:35.427Z,95101.84
2022-08-29T09:30:20.586Z,95100.13
2022-08-29T09:33:01.733Z,95106.78
2022-08-29T09:35:40.657Z,95097.81
2022-08-29T09:38:28.076Z,95107.19
2022-08-29T09:41:04.246Z,95097.09
2022-08-29T09:43:48.098Z,95092.22
2022-08-29T09:46:23.468Z,95092.97
2022-08-29T09:48:53.582Z,95077.53
2022-08-29T09:51:30.545Z,95078.31
2022-08-29T09:54:14.653Z,95084.72
2022-08-29T09:56:52.149Z,95083.25
2022-08-29T09:59:33.848Z,95080.84
2022-08-29T10:02:16.806Z,95080.97
2022-08-29T10:04:50.826Z,95082.00
2022-08-29T10:07:28.180Z,95080.56
2022-08-29T10:09:57.796Z,95072.91
2022-08-29T10:12:34.152Z,95065.19
2022-08-29T10:15:05.696Z,95072.31
2022-08-29T10:17:57.380Z,95058.13
2022-08-29T10:20:35.415Z,95056.50
2022-08-29T10:23:08.931Z,95052.19
2022-08-29T10:25:38.128Z,95049.03
2022-08-29T10:28:18.646Z,95043.69
2022-08-29T10:30:54.781Z,95031.16
2022-08-29T10:33:31.591Z,95029.34
2022-08-29T10:36:25.752Z,95027.72
2022-08-29T10:39:02.934Z,95022.38
2022-08-29T10:41:29.535Z,95027.50
2022-08-29T10:44:10.065Z,95018.56
2022-08-29T10:46:45.980Z,95018.88
2022-08-29T10:49:51.324Z,95012.34
2022-08-29T10:52:51.451Z,95007.06
2022-08-29T10:55:42.115Z,95017.44
2022-08-29T10:58:18.084Z,95021.81
2022-08-29T11:01:08.905Z,95019.16
2022-08-29T11:03:47.564Z,95017.75
2022-08-29T11:06:22.370Z,95017.06
2022-08-29T11:08:58.493Z,95018.44
2022-08-29T11:11:26.881Z,95009.03
2022-08-29T11:14:03.534Z,94999.28
2022-08-29T11:16:41.339Z,95003.28
2022-08-29T11:19:22.627Z,94996.84
2022-08-29T11:21:52.542Z,95001.03
2022-08-29T11:24:29.661Z,95000.31
2022-08-29T11:27:16.563Z,94996.38
2022-08-29T11:30:18.305Z,94978.25
2022-08-29T11:33:08.484Z,94971.25
2022-08-29T11:35:47.021Z,94974.69
2022-08-29T11:38:43.918Z,94964.31
2022-08-29T11:41:28.577Z,94961.72
2022-08-29T11:44:36.387Z,94966.97
2022-08-29T11:47:37.675Z,94968.94
2022-08-29T11:50:30.796Z,94965.63
2022-08-29T11:53:11.558Z,94971.75
2022-08-29T11:55:44.156Z,94968.44
2022-08-29T11:58:13.727Z,94967.69
2022-08-29T12:00:44.266Z,94966.44
2022-08-29T12:03:40.188Z,94961.63
2022-08-29T12:06:29.909Z,94969.31
2022-08-29T12:09:14.421Z,94967.97
2022-08-29T12:11:59.444Z,94968.28
2022-08-29T12:14:48.662Z,94964.63
2022-08-29T12:17:44.853Z,94960.44
2022-08-29T12:20:17.860Z,94949.22
2022-08-29T12:23:07.357Z,94966.13
2022-08-29T12:25:42.747Z,94965.41
2022-08-29T12:28:19.859Z,94978.72
2022-08-29T12:31:11.958Z,94972.78
2022-08-29T12:34:06.880Z,94969.53
2022-08-29T12:36:52.118Z,94963.94
2022-08-29T12:39:25.180Z,94972.50
2022-08-29T12:42:16.322Z,94979.00
2022-08-29T12:44:50.438Z,94959.63
2022-08-29T12:47:28.441Z,94974.16
2022-08-29T12:49:58.748Z,94968.13
2022-08-29T12:52:35.680Z,94966.19
2022-08-29T12:55:28.819Z,94967.63
2022-08-29T12:57:57.579Z,94968.19
2022-08-29T13:00:28.589Z,94972.50
2022-08-29T13:03:02.071Z,94956.66
2022-08-29T13:05:31.350Z,94961.25
2022-08-29T13:08:10.981Z,94978.84
2022-08-29T13:10:55.730Z,94986.97
2022-08-29T13:13:24.177Z,95003.19
2022-08-29T13:15:54.021Z,95010.53
2022-08-29T13:18:21.906Z,95013.66
2022-08-29T13:21:14.018Z,95023.41
2022-08-29T13:23:48.325Z,95020.16
2022-08-29T13:26:14.908Z,95019.22
2022-08-29T13:28:54.500Z,95002.53
2022-08-29T13:31:27.136Z,95025.44
2022-08-29T13:33:56.385Z,95022.84
2022-08-29T13:36:49.413Z,95035.88
2022-08-29T13:39:25.428Z,95033.66
2022-08-29T13:41:57.897Z,95024.03
2022-08-29T13:44:28.724Z,95031.88
2022-08-29T13:46:59.430Z,95032.25
2022-08-29T13:49:35.533Z,95034.59
2022-08-29T13:52:03.126Z,95036.22
2022-08-29T13:54:30.879Z,95050.00
2022-08-29T13:56:59.262Z,95059.06
2022-08-29T13:59:30.598Z,95085.69
2022-08-29T14:02:10.113Z,95081.88
2022-08-29T14:04:39.890Z,95074.22
2022-08-29T14:07:11.509Z,95089.38
2022-08-29T14:09:42.197Z,95093.94
2022-08-29T14:12:09.749Z,95095.97
2022-08-29T14:14:36.481Z,95084.84
2022-08-29T14:17:03.126Z,95086.09
2022-08-29T14:19:31.186Z,95082.84
2022-08-29T14:22:02.114Z,95073.75
2022-08-29T14:24:31.048Z,95055.28
2022-08-29T14:27:01.880Z,95072.94
2022-08-29T14:29:31.061Z,95077.44
2022-08-29T14:31:59.297Z,95074.25
2022-08-29T14:34:32.584Z,95075.44
2022-08-29T14:37:00.562Z,95083.34
2022-08-29T14:39:27.436Z,95084.53
2022-08-29T14:41:54.948Z,95088.06
2022-08-29T14:44:22.248Z,95083.38
2022-08-29T14:46:50.218Z,95086.91
2022-08-29T14:49:17.043Z,95079.28
2022-08-29T14:51:44.732Z,95071.94
2022-08-29T14:54:12.709Z,95061.94
2022-08-29T14:56:50.614Z,95071.72
2022-08-29T14:59:19.410Z,95064.06
2022-08-29T15:01:52.972Z,95058.47
2022-08-29T15:04:21.707Z,95052.75
2022-08-29T15:07:02.732Z,95060.69
2022-08-29T15:09:30.004Z,95059.06
2022-08-29T15:11:56.642Z,95063.28
2022-08-29T15:14:23.570Z,95071.13
2022-08-29T15:16:50.257Z,95065.28
2022-08-29T15:19:53.689Z,95074.31
2022-08-29T15:22:04.643Z,95073.84
2022-08-29T15:24:32.113Z,95076.84
2022-08-29T15:26:59.674Z,95075.78
2022-08-29T15:29:26.493Z,95073.69
2022-08-29T15:31:54.357Z,95073.31
2022-08-29T15:34:21.018Z,95074.59
2022-08-29T15:36:47.619Z,95062.88
2022-08-29T15:39:14.350Z,95054.97
2022-08-29T15:41:41.581Z,95074.19
2022-08-29T15:44:08.321Z,95077.91
2022-08-29T15:46:37.885Z,95076.00
2022-08-29T15:49:08.848Z,95070.53
2022-08-29T15:51:36.373Z,95061.72
2022-08-29T15:54:03.980Z,95063.94
2022-08-29T15:56:35.099Z,95040.56
2022-08-29T15:59:07.026Z,95050.28
2022-08-29T16:01:53.759Z,95052.94
2022-08-29T16:04:22.810Z,95051.09
2022-08-29T16:06:51.405Z,95058.38
2022-08-29T16:09:18.759Z,95047.31
2022-08-29T16:11:47.158Z,95047.16
2022-08-29T16:17:01.967Z,95052.81
2022-08-29T16:19:29.431Z,95042.13
2022-08-29T16:21:59.999Z,95043.19
2022-08-29T16:24:28.840Z,95045.88
2022-08-29T16:26:55.641Z,95044.63
2022-08-29T16:29:26.826Z,95039.31
2022-08-29T16:31:57.915Z,95044.41
2022-08-29T16:34:26.977Z,95050.75
2022-08-29T16:37:01.881Z,95046.25
2022-08-29T16:39:29.359Z,95042.50
2022-08-29T16:41:56.217Z,95046.69
2022-08-29T16:44:23.300Z,95040.94
2022-08-29T16:46:50.009Z,95036.00
2022-08-29T16:49:16.939Z,95033.66
2022-08-29T16:51:43.745Z,95022.91
2022-08-29T16:54:10.543Z,95023.78
2022-08-29T16:56:37.885Z,95013.84
2022-08-29T16:59:04.673Z,95015.28
2022-08-29T17:01:38.974Z,95015.88
2022-08-29T17:04:12.680Z,95019.94
2022-08-29T17:06:39.527Z,95010.88
2022-08-29T17:09:08.926Z,95016.03
2022-08-29T17:11:37.098Z,95021.72
2022-08-29T17:14:05.678Z,95025.13
2022-08-29T17:16:32.816Z,95015.50
2022-08-29T17:18:59.947Z,95016.47
2022-08-29T17:21:27.688Z,95022.78
2022-08-29T17:23:55.491Z,95016.09
2022-08-29T17:26:22.978Z,95021.94
2022-08-29T17:28:50.310Z,95020.88
2022-08-29T17:31:19.074Z,95036.75
2022-08-29T17:33:46.421Z,95022.91
2022-08-29T17:36:13.647Z,95030.81
2022-08-29T17:38:42.582Z,95027.09
2022-08-29T17:41:14.961Z,95036.63
2022-08-29T17:43:43.575Z,95038.09
2022-08-29T17:46:11.175Z,95036.69
2022-08-29T17:48:37.877Z,95037.72
2022-08-29T17:51:04.794Z,95037.19
2022-08-29T17:53:32.570Z,95033.81
2022-08-29T17:56:10.112Z,95043.09
2022-08-29T17:58:37.881Z,95033.00
2022-08-29T18:01:04.576Z,95040.41
2022-08-29T18:03:31.203Z,95055.94
2022-08-29T18:05:57.781Z,95046.34
2022-08-29T18:08:24.377Z,95040.13
2022-08-29T18:10:51.766Z,95052.19
2022-08-29T18:13:21.789Z,95054.78
2022-08-29T18:15:50.655Z,95051.94
2022-08-29T18:18:20.211Z,95058.19
2022-08-29T18:20:47.103Z,95062.84
2022-08-29T18:23:13.746Z,95058.19
2022-08-29T18:25:40.426Z,95058.66
2022-08-29T18:28:08.400Z,95063.41
2022-08-29T18:30:35.557Z,95063.03
2022-08-29T18:33:02.417Z,95062.66
2022-08-29T18:35:29.523Z,95064.50
2022-08-29T18:37:56.156Z,95056.13
2022-08-29T18:40:23.380Z,95070.47
2022-08-29T18:42:50.115Z,95078.75
2022-08-29T18:45:16.784Z,95087.06
2022-08-29T18:47:43.517Z,95080.31
2022-08-29T18:50:29.285Z,95083.81
2022-08-29T18:52:56.647Z,95088.81
2022-08-29T18:55:23.980Z,95083.91
2022-08-29T18:57:52.350Z,95079.22
2022-08-29T19:00:19.045Z,95075.22
2022-08-29T19:02:45.772Z,95067.44
2022-08-29T19:05:12.907Z,95075.03
2022-08-29T19:07:39.550Z,95087.53
2022-08-29T19:10:07.277Z,95070.50
2022-08-29T19:12:34.356Z,95082.09
2022-08-29T19:15:01.004Z,95082.53
2022-08-29T19:17:27.851Z,95086.16
2022-08-29T19:20:13.192Z,95086.72
2022-08-29T19:22:39.839Z,95077.31
2022-08-29T19:25:08.756Z,95082.41
2022-08-29T19:27:43.768Z,95092.34
2022-08-29T19:30:13.523Z,95098.41
2022-08-29T19:32:40.949Z,95092.72
2022-08-29T19:35:11.203Z,95101.25
2022-08-29T19:37:39.572Z,95107.28
2022-08-29T19:40:07.408Z,95109.81
2022-08-29T19:42:34.250Z,95112.59
2022-08-29T19:45:02.066Z,95120.09
2022-08-29T19:47:30.091Z,95117.81
2022-08-29T19:49:56.904Z,95112.53
2022-08-29T19:52:24.175Z,95112.06
2022-08-29T19:54:51.148Z,95111.03
2022-08-29T19:57:18.168Z,95107.53
2022-08-29T19:59:45.862Z,95102.97
2022-08-29T20:02:15.614Z,95092.63
2022-08-29T20:04:43.072Z,95091.88
2022-08-29T20:07:10.142Z,95095.31
2022-08-29T20:09:37.001Z,95095.28
2022-08-29T20:12:05.444Z,95092.78
2022-08-29T20:14:32.514Z,95105.75
2022-08-29T20:16:59.195Z,95091.94
2022-08-29T20:19:26.939Z,95101.75
2022-08-29T20:21:53.658Z,95113.53
2022-08-29T20:24:20.421Z,95108.25
2022-08-29T20:26:49.565Z,95109.28
2022-08-29T20:29:17.162Z,95120.50
2022-08-29T20:31:44.743Z,95121.31
2022-08-29T20:34:11.767Z,95120.81
2022-08-29T20:36:57.832Z,95122.56
2022-08-29T20:39:25.577Z,95122.50
2022-08-29T20:41:55.983Z,95113.25
2022-08-29T20:44:28.144Z,95113.28
2022-08-29T20:46:57.441Z,95127.59
2022-08-29T20:49:26.818Z,95130.63
2022-08-29T20:51:53.594Z,95120.91
2022-08-29T20:54:22.845Z,95145.69
2022-08-29T20:56:50.480Z,95145.94
2022-08-29T20:59:17.529Z,95136.13
2022-08-29T21:01:44.577Z,95142.00
2022-08-29T21:04:30.621Z,95143.53
2022-08-29T21:07:02.236Z,95138.28
2022-08-29T21:09:29.511Z,95145.59
2022-08-29T21:11:56.317Z,95149.59
2022-08-29T21:14:23.420Z,95146.06
2022-08-29T21:16:56.799Z,95135.00
2022-08-29T21:19:24.704Z,95125.97
2022-08-29T21:21:51.477Z,95122.72
2022-08-29T21:24:18.501Z,95135.00
2022-08-29T21:26:45.372Z,95134.47
2022-08-29T21:29:12.025Z,95142.22
2022-08-29T21:31:39.043Z,95135.41
2022-08-29T21:34:10.421Z,95133.16
2022-08-29T21:36:38.286Z,95122.16
2022-08-29T21:39:07.716Z,95133.44
2022-08-29T21:41:38.823Z,95134.94
2022-08-29T21:44:06.296Z,95137.00
2022-08-29T21:46:36.776Z,95123.94
2022-08-29T21:49:06.827Z,95131.44
2022-08-29T21:51:34.580Z,95115.66
2022-08-29T21:54:02.287Z,95132.13
2022-08-29T21:56:31.261Z,95128.09
2022-08-29T21:58:58.729Z,95113.78
2022-08-29T22:01:32.059Z,95127.03
2022-08-29T22:04:01.006Z,95117.19
2022-08-29T22:06:28.524Z,95125.41
2022-08-29T22:08:55.585Z,95116.09
2022-08-29T22:11:25.489Z,95122.81
2022-08-29T22:14:05.019Z,95094.94
2022-08-29T22:16:31.790Z,95106.69
2022-08-29T22:19:01.885Z,95107.41
2022-08-29T22:21:33.179Z,95051.72
2022-08-29T22:24:00.756Z,95115.78
2022-08-29T22:26:28.383Z,95108.81
2022-08-29T22:28:55.794Z,95119.50
2022-08-29T22:31:23.139Z,95116.81
2022-08-29T22:33:50.170Z,95116.66
2022-08-29T22:36:17.149Z,95120.75
2022-08-29T22:38:45.857Z,95118.28
2022-08-29T22:41:16.415Z,95127.31
2022-08-29T22:43:45.163Z,95124.03
2022-08-29T22:46:19.130Z,95120.75
2022-08-29T22:48:45.830Z,95131.50
2022-08-29T22:51:14.192Z,95139.78
2022-08-29T22:53:41.534Z,95138.97
2022-08-29T22:56:08.956Z,95139.22
2022-08-29T22:58:36.576Z,95125.69
2022-08-29T23:01:04.551Z,95124.75
2022-08-29T23:03:32.144Z,95139.78
2022-08-29T23:05:59.636Z,95133.50
2022-08-29T23:08:26.342Z,95139.72
2022-08-29T23:10:54.448Z,95137.97
2022-08-29T23:13:22.888Z,95142.91
2022-08-29T23:15:49.695Z,95145.09
2022-08-29T23:18:16.464Z,95144.81
2022-08-29T23:20:43.164Z,95139.97
2022-08-29T23:23:13.837Z,95130.16
2022-08-29T23:25:40.489Z,95130.66
2022-08-29T23:28:07.228Z,95138.53
2022-08-29T23:30:34.197Z,95144.59
2022-08-29T23:33:00.936Z,95140.13
2022-08-29T23:35:27.586Z,95140.69
2022-08-29T23:37:54.417Z,95153.28
2022-08-29T23:40:21.595Z,95149.56
2022-08-29T23:42:48.872Z,95153.91
2022-08-29T23:45:15.779Z,95162.47
2022-08-29T23:47:42.575Z,95151.84
2022-08-29T23:50:09.812Z,95151.09
2022-08-29T23:52:36.396Z,95159.38
2022-08-29T23:55:03.311Z,95153.34
2022-08-29T23:57:30.038Z,95165.88
